Time;durP1;ratioP1;P1;durP2;ratioP2;P2;SDS_P1;SDS_P2;PMS_P1;PMS_P2;Temp;Humidity;BMP_temperature;BMP_pressure;BME280_temperature;BME280_humidity;BME280_pressure;Samples;Min_cycle;Max_cycle;Signal;HPM_P1;HPM_P2
2023/12/29 00:01:33;;;;;;;3.35;1.83;;;9.50;99.90;;;;;;5056369;28;20025;-43
2023/12/29 00:03:59;;;;;;;6.53;1.63;;;9.60;99.90;;;;;;5057582;28;20397;-43
2023/12/29 00:06:24;;;;;;;2.65;1.80;;;9.60;99.90;;;;;;5056684;28;20112;-46
2023/12/29 00:08:50;;;;;;;6.15;2.80;;;9.60;99.90;;;;;;5057666;28;20530;-46
2023/12/29 00:11:22;;;;;;;6.32;2.25;;;9.60;99.90;;;;;;5057632;28;20091;-43
2023/12/29 00:13:48;;;;;;;8.40;2.30;;;9.60;99.90;;;;;;5056309;28;20021;-47
2023/12/29 00:16:15;;;;;;;2.67;1.75;;;9.50;99.90;;;;;;5057827;28;20032;-44
2023/12/29 00:18:41;;;;;;;6.68;2.55;;;9.50;99.90;;;;;;5054947;28;20025;-43
2023/12/29 00:21:07;;;;;;;8.27;2.22;;;9.60;99.90;;;;;;5056304;28;20512;-43
2023/12/29 00:23:32;;;;;;;5.35;2.17;;;9.60;99.90;;;;;;5056536;28;20021;-42
2023/12/29 00:25:58;;;;;;;6.00;2.47;;;9.60;99.90;;;;;;5058791;28;20032;-45
2023/12/29 00:28:24;;;;;;;5.68;2.55;;;9.60;99.90;;;;;;5054718;28;20131;-45
2023/12/29 00:30:49;;;;;;;5.65;2.50;;;9.60;99.90;;;;;;5057639;28;20482;-44
2023/12/29 00:33:15;;;;;;;5.45;2.63;;;9.60;99.90;;;;;;5057898;28;20020;-46
2023/12/29 00:35:41;;;;;;;9.85;3.25;;;9.60;99.90;;;;;;5056383;28;20057;-42
2023/12/29 00:38:06;;;;;;;7.47;2.42;;;9.60;99.90;;;;;;5053556;28;20028;-44
2023/12/29 00:40:34;;;;;;;3.75;1.70;;;9.60;99.90;;;;;;5057164;28;20021;-43
2023/12/29 00:43:01;;;;;;;5.15;1.95;;;9.60;99.90;;;;;;5057886;28;20063;-43
2023/12/29 00:45:32;;;;;;;7.55;2.05;;;9.70;99.90;;;;;;5051265;28;20029;-44
2023/12/29 00:47:57;;;;;;;6.22;2.40;;;9.60;99.90;;;;;;5058232;28;20021;-43
2023/12/29 00:50:23;;;;;;;5.15;2.05;;;9.70;99.90;;;;;;5056734;28;20360;-45
2023/12/29 00:52:48;;;;;;;7.55;2.30;;;9.60;99.90;;;;;;5055507;28;20071;-45
2023/12/29 00:55:14;;;;;;;5.68;1.98;;;9.60;99.90;;;;;;5058395;28;20099;-42
2023/12/29 00:57:40;;;;;;;8.68;2.45;;;9.70;99.90;;;;;;5056485;28;20032;-46
2023/12/29 01:00:08;;;;;;;5.72;1.90;;;9.70;99.90;;;;;;5059636;28;20024;-45
2023/12/29 01:02:33;;;;;;;7.63;2.30;;;9.70;99.90;;;;;;5056655;28;20585;-44
2023/12/29 01:04:59;;;;;;;3.90;2.33;;;9.80;99.90;;;;;;5059454;28;20108;-43
2023/12/29 01:07:24;;;;;;;3.80;1.85;;;9.80;99.90;;;;;;5056208;28;20068;-44
2023/12/29 01:09:50;;;;;;;8.73;1.67;;;9.80;99.90;;;;;;5057722;28;20021;-46
2023/12/29 01:12:16;;;;;;;7.75;2.25;;;9.80;99.90;;;;;;5056955;28;20075;-44
2023/12/29 01:14:41;;;;;;;6.05;1.58;;;9.80;99.90;;;;;;5053453;28;20506;-43
2023/12/29 01:17:07;;;;;;;4.43;1.95;;;9.80;99.90;;;;;;5059442;28;20059;-43
2023/12/29 01:19:33;;;;;;;3.17;1.63;;;9.80;99.90;;;;;;5057084;28;20025;-43
2023/12/29 01:21:58;;;;;;;5.00;2.42;;;9.70;99.90;;;;;;5057836;28;20024;-44
2023/12/29 01:24:24;;;;;;;4.05;1.90;;;9.70;99.90;;;;;;5056960;28;20052;-43
2023/12/29 01:26:50;;;;;;;5.00;2.00;;;9.70;99.90;;;;;;5057554;28;20071;-42
2023/12/29 01:29:15;;;;;;;6.75;1.98;;;9.70;99.90;;;;;;5058732;28;20021;-42
2023/12/29 01:31:41;;;;;;;6.47;2.47;;;9.70;99.90;;;;;;5057098;28;20028;-45
2023/12/29 01:34:06;;;;;;;3.08;1.73;;;9.70;99.90;;;;;;5053592;28;20095;-42
2023/12/29 01:36:32;;;;;;;5.45;1.88;;;9.70;99.90;;;;;;5056496;28;20032;-45
2023/12/29 01:38:57;;;;;;;4.65;2.78;;;9.70;99.90;;;;;;5057128;28;20025;-43
2023/12/29 01:41:23;;;;;;;4.43;2.05;;;9.70;99.90;;;;;;5056117;28;20161;-43
2023/12/29 01:44:01;;;;;;;6.22;1.77;;;9.70;99.90;;;;;;5056399;28;20398;-44
2023/12/29 01:46:29;;;;;;;7.05;2.00;;;9.70;99.90;;;;;;5056942;28;20032;-45
2023/12/29 01:48:55;;;;;;;4.00;1.60;;;9.70;99.90;;;;;;5058615;28;20029;-43
2023/12/29 01:51:24;;;;;;;3.50;1.65;;;9.70;99.90;;;;;;5058026;28;20032;-45
2023/12/29 01:53:52;;;;;;;4.63;2.17;;;9.70;99.90;;;;;;5057831;28;20025;-43
2023/12/29 01:56:18;;;;;;;3.42;1.48;;;9.70;99.90;;;;;;5056985;28;20023;-44
2023/12/29 01:58:44;;;;;;;5.45;2.20;;;9.60;99.90;;;;;;5055497;28;20116;-43
2023/12/29 02:01:10;;;;;;;6.45;2.60;;;9.60;99.90;;;;;;5058188;28;20228;-43
2023/12/29 02:03:37;;;;;;;6.85;2.10;;;9.60;99.90;;;;;;5055364;28;20036;-44
2023/12/29 02:06:03;;;;;;;6.13;1.92;;;9.60;99.90;;;;;;5059308;28;20132;-45
2023/12/29 02:08:29;;;;;;;4.10;1.70;;;9.50;99.90;;;;;;5056397;28;20440;-43
2023/12/29 02:10:55;;;;;;;6.72;1.75;;;9.40;99.90;;;;;;5058529;28;20017;-46
2023/12/29 02:13:22;;;;;;;4.32;2.10;;;9.40;99.90;;;;;;5058147;28;20019;-44
2023/12/29 02:15:52;;;;;;;9.77;2.03;;;9.30;99.90;;;;;;5057271;28;20013;-45
2023/12/29 02:18:20;;;;;;;5.00;1.70;;;9.30;99.90;;;;;;5058746;28;20028;-43
2023/12/29 02:20:46;;;;;;;5.68;2.00;;;9.30;99.90;;;;;;5057552;28;20029;-43
2023/12/29 02:23:12;;;;;;;4.53;1.80;;;9.30;99.90;;;;;;5059757;28;20450;-43
2023/12/29 02:25:37;;;;;;;6.32;1.90;;;9.30;99.90;;;;;;5057137;28;20024;-44
2023/12/29 02:28:24;;;;;;;3.65;1.83;;;9.30;99.90;;;;;;5059425;28;20085;-46
2023/12/29 02:30:57;;;;;;;9.00;2.28;;;9.40;99.90;;;;;;5057910;28;20104;-43
2023/12/29 02:33:25;;;;;;;1.90;1.70;;;9.40;99.90;;;;;;5056871;28;20013;-47
2023/12/29 02:35:55;;;;;;;6.32;1.55;;;9.40;99.90;;;;;;5057787;28;20017;-42
2023/12/29 02:38:20;;;;;;;3.38;1.88;;;9.40;99.90;;;;;;5058373;28;20103;-43
2023/12/29 02:40:47;;;;;;;4.50;1.52;;;9.40;99.90;;;;;;5056506;28;20116;-43
2023/12/29 02:43:12;;;;;;;7.82;1.70;;;9.40;99.90;;;;;;5059722;28;20394;-43
2023/12/29 02:45:38;;;;;;;4.22;1.85;;;9.40;99.90;;;;;;5056647;28;20112;-43
2023/12/29 02:48:04;;;;;;;2.50;1.30;;;9.40;99.90;;;;;;5059528;28;20063;-44
2023/12/29 02:50:29;;;;;;;3.15;1.45;;;9.30;99.90;;;;;;5057361;28;20104;-44
2023/12/29 02:52:55;;;;;;;6.10;1.90;;;9.30;99.90;;;;;;5058547;28;20017;-42
2023/12/29 02:55:21;;;;;;;2.85;1.75;;;9.30;99.90;;;;;;5058507;28;20020;-44
2023/12/29 02:57:47;;;;;;;2.63;1.63;;;9.40;99.90;;;;;;5057171;28;20020;-43
2023/12/29 03:00:13;;;;;;;3.10;1.50;;;9.30;99.90;;;;;;5059682;28;20017;-43
2023/12/29 03:02:38;;;;;;;8.38;2.28;;;9.40;99.90;;;;;;5055287;28;20060;-44
2023/12/29 03:05:05;;;;;;;3.92;1.50;;;9.40;99.90;;;;;;5058555;28;20093;-44
2023/12/29 03:07:30;;;;;;;3.45;1.73;;;9.40;99.90;;;;;;5057104;28;20024;-43
2023/12/29 03:09:56;;;;;;;3.75;1.60;;;9.40;99.90;;;;;;5059118;28;20135;-42
2023/12/29 03:12:21;;;;;;;3.50;1.67;;;9.40;99.90;;;;;;5059239;28;20088;-42
2023/12/29 03:14:47;;;;;;;5.10;1.52;;;9.40;99.90;;;;;;5057258;28;20259;-43
2023/12/29 03:17:13;;;;;;;7.78;1.85;;;9.40;99.90;;;;;;5059807;28;20025;-44
2023/12/29 03:19:38;;;;;;;6.90;2.22;;;9.40;99.90;;;;;;5056975;28;20098;-43
2023/12/29 03:22:04;;;;;;;4.75;1.35;;;9.40;99.90;;;;;;5060106;28;20021;-43
2023/12/29 03:24:30;;;;;;;4.57;1.65;;;9.40;99.90;;;;;;5057737;28;20102;-43
2023/12/29 03:26:56;;;;;;;6.88;1.88;;;9.50;99.90;;;;;;5058398;28;20049;-44
2023/12/29 03:29:21;;;;;;;3.10;1.60;;;9.50;99.90;;;;;;5059547;28;20113;-42
2023/12/29 03:31:47;;;;;;;4.85;1.85;;;9.50;99.90;;;;;;5058279;28;20484;-42
2023/12/29 03:34:13;;;;;;;6.90;2.30;;;9.50;99.90;;;;;;5060602;28;20044;-43
2023/12/29 03:36:39;;;;;;;5.07;2.33;;;9.50;99.90;;;;;;5053228;28;20152;-44
2023/12/29 03:39:04;;;;;;;10.48;1.83;;;9.50;99.90;;;;;;5059826;28;20024;-42
2023/12/29 03:41:30;;;;;;;4.85;2.00;;;9.60;99.90;;;;;;5058540;28;20487;-44
2023/12/29 03:43:59;;;;;;;7.60;2.00;;;9.60;99.90;;;;;;5059206;28;20180;-43
2023/12/29 03:46:25;;;;;;;7.05;2.55;;;9.60;99.90;;;;;;5058989;28;20024;-42
2023/12/29 03:48:51;;;;;;;6.03;2.20;;;9.50;99.90;;;;;;5058531;28;20261;-42
2023/12/29 03:51:18;;;;;;;9.57;2.55;;;9.60;99.90;;;;;;5060272;28;20442;-43
2023/12/29 03:53:44;;;;;;;5.85;2.17;;;9.50;99.90;;;;;;5057469;28;20075;-43
2023/12/29 03:56:14;;;;;;;5.30;2.53;;;9.40;99.90;;;;;;5060760;28;20024;-42
2023/12/29 03:58:40;;;;;;;;;;;9.40;99.90;;;;;;5057558;28;20025;-50
2023/12/29 04:01:13;;;;;;;6.03;2.70;;;9.40;99.90;;;;;;5060862;28;19910;-43
2023/12/29 04:03:40;;;;;;;6.00;2.47;;;9.40;99.90;;;;;;5057670;28;20057;-43
2023/12/29 04:06:06;;;;;;;6.75;1.98;;;9.30;99.90;;;;;;5060766;28;20253;-44
2023/12/29 04:08:35;;;;;;;5.15;2.00;;;9.40;99.90;;;;;;5057043;28;20046;-46
2023/12/29 04:11:00;;;;;;;4.30;1.60;;;9.50;99.90;;;;;;5060073;28;20024;-47
2023/12/29 04:13:26;;;;;;;5.55;1.80;;;9.50;99.90;;;;;;5059644;28;20025;-44
2023/12/29 04:15:52;;;;;;;5.47;1.75;;;9.50;99.90;;;;;;5059153;28;20086;-43
2023/12/29 04:18:20;;;;;;;4.75;1.48;;;9.50;99.90;;;;;;5060226;28;20021;-42
2023/12/29 04:20:45;;;;;;;5.03;1.92;;;9.50;99.90;;;;;;5056624;28;20028;-45
2023/12/29 04:23:12;;;;;;;4.85;2.05;;;9.60;99.90;;;;;;5060937;28;20423;-46
2023/12/29 04:25:38;;;;;;;9.90;2.22;;;9.60;99.90;;;;;;5058013;28;20032;-47
2023/12/29 04:28:04;;;;;;;3.53;1.88;;;9.60;99.90;;;;;;5058109;28;20024;-43
2023/12/29 04:30:29;;;;;;;6.13;1.80;;;9.60;99.90;;;;;;5062937;28;20025;-43
2023/12/29 04:32:55;;;;;;;7.25;1.90;;;9.60;99.90;;;;;;5063126;28;20025;-43
2023/12/29 04:35:21;;;;;;;7.95;1.77;;;9.70;99.90;;;;;;5063996;28;20044;-41
2023/12/29 04:37:47;;;;;;;2.88;1.77;;;9.70;99.90;;;;;;5061323;28;20482;-42
2023/12/29 04:40:13;;;;;;;3.92;1.90;;;9.60;99.90;;;;;;5064637;28;20316;-42
2023/12/29 04:42:39;;;;;;;4.30;1.60;;;9.60;99.90;;;;;;5062072;28;20433;-45
2023/12/29 04:45:05;;;;;;;4.78;1.70;;;9.60;99.90;;;;;;5063305;28;20241;-46
2023/12/29 04:47:31;;;;;;;4.75;1.60;;;9.50;99.90;;;;;;5062690;28;20578;-42
2023/12/29 04:49:57;;;;;;;5.55;1.55;;;9.50;99.90;;;;;;5063143;28;20088;-44
2023/12/29 04:52:23;;;;;;;3.97;1.20;;;9.50;99.90;;;;;;5063834;28;20024;-45
2023/12/29 04:54:49;;;;;;;5.60;1.65;;;9.50;99.90;;;;;;5062318;28;20047;-44
2023/12/29 04:57:14;;;;;;;5.28;1.80;;;9.40;99.90;;;;;;5063856;28;20017;-43
2023/12/29 04:59:40;;;;;;;5.85;1.75;;;9.30;99.90;;;;;;5060371;28;20048;-43
2023/12/29 05:02:05;;;;;;;3.58;1.58;;;9.40;99.90;;;;;;5064932;28;20020;-43
2023/12/29 05:04:31;;;;;;;4.55;2.10;;;9.30;99.90;;;;;;5061856;28;20108;-46
2023/12/29 05:06:57;;;;;;;6.97;2.15;;;9.20;99.90;;;;;;5062927;28;20115;-43
2023/12/29 05:09:22;;;;;;;6.20;1.83;;;9.20;99.90;;;;;;5062798;28;20425;-43
2023/12/29 05:11:49;;;;;;;5.53;1.73;;;9.30;99.90;;;;;;5060997;28;20529;-42
2023/12/29 05:14:15;;;;;;;2.78;1.70;;;9.20;99.90;;;;;;5065037;28;20548;-42
2023/12/29 05:16:44;;;;;;;4.15;1.63;;;9.20;99.90;;;;;;5061633;28;20028;-42
2023/12/29 05:19:09;;;;;;;5.18;1.88;;;9.20;99.90;;;;;;5053000;28;20024;-42
2023/12/29 05:21:35;;;;;;;3.53;1.27;;;9.30;99.90;;;;;;5062600;28;20020;-43
2023/12/29 05:24:01;;;;;;;2.88;1.63;;;9.30;99.90;;;;;;5061542;28;21403;-43
2023/12/29 05:26:26;;;;;;;2.42;1.45;;;9.30;99.90;;;;;;5061426;28;20033;-46
2023/12/29 05:28:52;;;;;;;4.45;1.75;;;9.30;99.90;;;;;;5062199;28;20356;-41
2023/12/29 05:31:18;;;;;;;3.47;1.60;;;9.20;99.90;;;;;;5064732;28;20095;-43
2023/12/29 05:33:44;;;;;;;2.70;1.33;;;9.20;99.90;;;;;;5061781;28;20497;-44
2023/12/29 05:36:11;;;;;;;3.38;1.48;;;9.10;99.90;;;;;;5064701;28;20509;-44
2023/12/29 05:38:37;;;;;;;4.03;1.40;;;9.20;99.90;;;;;;5062029;28;20099;-46
2023/12/29 05:41:04;;;;;;;3.63;1.42;;;9.20;99.90;;;;;;5062739;28;20025;-45
2023/12/29 05:43:31;;;;;;;5.20;1.27;;;9.10;99.90;;;;;;5063557;28;20021;-43
2023/12/29 05:45:57;;;;;;;5.78;1.48;;;9.10;99.90;;;;;;5063268;28;20024;-43
2023/12/29 05:48:23;;;;;;;4.75;1.60;;;9.10;99.90;;;;;;5064122;28;20471;-42
2023/12/29 05:50:52;;;;;;;3.88;1.67;;;9.10;99.90;;;;;;5062137;28;20494;-42
2023/12/29 05:53:18;;;;;;;4.03;1.65;;;9.20;99.90;;;;;;5064831;28;20024;-45
2023/12/29 05:55:44;;;;;;;2.75;1.50;;;9.20;99.90;;;;;;5061911;28;20104;-41
2023/12/29 05:58:10;;;;;;;4.60;1.58;;;9.10;99.90;;;;;;5060497;28;20060;-45
2023/12/29 06:00:39;;;;;;;7.88;2.15;;;9.10;99.90;;;;;;5061648;28;20426;-41
2023/12/29 06:03:05;;;;;;;5.30;2.08;;;9.10;99.90;;;;;;5064129;28;20021;-43
2023/12/29 06:05:32;;;;;;;5.30;1.80;;;9.00;99.90;;;;;;5063466;28;20051;-42
2023/12/29 06:07:58;;;;;;;5.70;2.10;;;8.90;99.90;;;;;;5063024;28;20017;-42
2023/12/29 06:10:23;;;;;;;1.98;1.67;;;8.80;99.90;;;;;;5064738;28;20016;-44
2023/12/29 06:12:49;;;;;;;7.95;3.28;;;8.70;99.90;;;;;;5062126;28;20552;-42
2023/12/29 06:15:15;;;;;;;7.30;2.70;;;8.70;99.90;;;;;;5064863;28;20045;-44
2023/12/29 06:17:41;;;;;;;11.43;3.10;;;8.70;99.90;;;;;;5062014;28;20118;-42
2023/12/29 06:20:09;;;;;;;6.18;2.65;;;8.70;99.90;;;;;;5052928;28;20021;-42
2023/12/29 06:22:42;;;;;;;13.15;3.53;;;8.70;99.90;;;;;;5063238;28;20026;-43
2023/12/29 06:25:11;;;;;;;11.88;3.35;;;8.70;99.90;;;;;;5053220;28;20485;-42
2023/12/29 06:27:38;;;;;;;4.88;3.00;;;8.70;99.90;;;;;;5062881;28;20162;-44
2023/12/29 06:30:06;;;;;;;6.47;2.90;;;8.70;99.90;;;;;;5064095;28;20551;-43
2023/12/29 06:32:32;;;;;;;6.75;3.53;;;8.70;99.90;;;;;;5063888;28;20454;-43
2023/12/29 06:34:57;;;;;;;7.85;2.88;;;8.70;99.90;;;;;;5063904;28;20255;-44
2023/12/29 06:37:23;;;;;;;5.75;2.70;;;8.70;99.90;;;;;;5052634;28;20395;-44
2023/12/29 06:39:48;;;;;;;3.92;2.25;;;8.80;99.90;;;;;;5049480;28;20079;-43
2023/12/29 06:42:14;;;;;;;8.13;2.13;;;8.70;99.90;;;;;;5054370;28;20025;-43
2023/12/29 06:44:40;;;;;;;3.78;2.00;;;8.70;99.90;;;;;;5056798;28;20109;-43
2023/12/29 06:47:06;;;;;;;4.20;2.40;;;8.70;99.90;;;;;;5054447;28;20470;-44
2023/12/29 06:49:34;;;;;;;4.68;2.45;;;8.70;99.90;;;;;;5056595;28;20437;-42
2023/12/29 06:51:59;;;;;;;9.20;2.92;;;8.80;99.90;;;;;;5064274;28;20517;-45
2023/12/29 06:54:25;;;;;;;4.10;1.92;;;8.80;99.90;;;;;;5063275;28;20024;-47
2023/12/29 06:56:51;;;;;;;5.97;2.08;;;8.80;99.90;;;;;;5053167;28;20364;-44
2023/12/29 06:59:18;;;;;;;6.28;2.05;;;8.80;99.90;;;;;;5051693;28;20028;-42
2023/12/29 07:01:44;;;;;;;5.20;2.28;;;8.80;99.90;;;;;;5050524;28;20032;-43
2023/12/29 07:04:10;;;;;;;6.18;2.10;;;8.80;99.90;;;;;;5051632;28;20025;-44
2023/12/29 07:06:36;;;;;;;7.00;2.05;;;8.80;99.90;;;;;;5050528;28;20025;-43
2023/12/29 07:09:03;;;;;;;6.55;2.47;;;8.80;99.90;;;;;;5053406;28;20048;-45
2023/12/29 07:11:29;;;;;;;4.28;1.60;;;8.70;99.90;;;;;;5065044;28;20413;-43
2023/12/29 07:13:54;;;;;;;7.38;2.90;;;8.70;99.90;;;;;;5058243;28;20025;-44
2023/12/29 07:16:20;;;;;;;4.75;2.15;;;8.60;99.90;;;;;;5054039;28;20078;-47
2023/12/29 07:18:46;;;;;;;8.45;3.33;;;8.60;99.90;;;;;;5060301;28;20041;-44
2023/12/29 07:21:12;;;;;;;3.25;2.08;;;8.60;99.90;;;;;;5054802;28;20272;-44
2023/12/29 07:23:39;;;;;;;5.45;2.28;;;8.50;99.90;;;;;;5052304;28;20025;-46
2023/12/29 07:26:04;;;;;;;5.68;2.20;;;8.50;99.90;;;;;;5051361;28;20659;-44
2023/12/29 07:28:31;;;;;;;5.50;2.15;;;8.50;99.90;;;;;;5048533;28;20052;-44
2023/12/29 07:30:57;;;;;;;6.40;2.58;;;8.50;99.90;;;;;;5052761;28;20021;-45
2023/12/29 07:33:23;;;;;;;6.78;2.42;;;8.50;99.90;;;;;;5054877;28;20021;-44
2023/12/29 07:35:50;;;;;;;5.80;2.47;;;8.60;99.90;;;;;;5063391;28;20101;-43
2023/12/29 07:38:15;;;;;;;7.47;2.65;;;8.60;99.90;;;;;;5063500;28;20028;-44
2023/12/29 07:40:41;;;;;;;6.75;2.33;;;8.60;99.90;;;;;;5064008;28;20021;-47
2023/12/29 07:43:07;;;;;;;4.90;1.92;;;8.60;99.90;;;;;;5051487;28;20020;-44
2023/12/29 07:45:33;;;;;;;3.58;2.08;;;8.70;99.90;;;;;;5065108;28;20107;-42
2023/12/29 07:47:58;;;;;;;4.95;2.00;;;8.70;99.90;;;;;;5063367;28;20091;-42
2023/12/29 07:50:24;;;;;;;10.30;2.05;;;8.70;99.90;;;;;;5063709;28;20012;-44
2023/12/29 07:52:50;;;;;;;5.68;1.98;;;8.70;99.90;;;;;;5063931;28;20020;-44
2023/12/29 07:55:18;;;;;;;7.65;2.78;;;8.70;99.90;;;;;;5063668;28;20362;-46
2023/12/29 07:57:46;;;;;;;7.32;2.28;;;8.70;99.90;;;;;;5053678;28;20036;-43
2023/12/29 08:00:12;;;;;;;7.22;2.17;;;8.80;99.90;;;;;;5060161;28;20024;-42
2023/12/29 08:02:38;;;;;;;4.20;1.50;;;8.80;99.90;;;;;;5069964;28;20497;-44
2023/12/29 08:05:04;;;;;;;6.10;1.75;;;8.90;99.90;;;;;;5070322;28;20035;-44
2023/12/29 08:07:30;;;;;;;11.48;2.65;;;8.90;99.90;;;;;;5070703;28;20029;-43
2023/12/29 08:09:55;;;;;;;8.15;2.55;;;9.00;99.90;;;;;;5071086;28;20025;-43
2023/12/29 08:12:21;;;;;;;3.50;1.70;;;9.10;99.90;;;;;;5071021;28;20027;-46
2023/12/29 08:14:48;;;;;;;8.25;2.17;;;9.10;99.90;;;;;;5070970;28;20027;-45
2023/12/29 08:17:13;;;;;;;6.38;1.83;;;9.10;99.90;;;;;;5069611;28;20044;-43
2023/12/29 08:19:40;;;;;;;9.45;1.75;;;9.20;99.90;;;;;;5068167;28;20442;-42
2023/12/29 08:22:05;;;;;;;8.45;2.42;;;9.30;99.90;;;;;;5059225;28;20045;-43
2023/12/29 08:24:31;;;;;;;7.47;1.85;;;9.40;99.90;;;;;;5051064;28;20052;-45
2023/12/29 08:26:57;;;;;;;9.73;2.80;;;9.50;99.90;;;;;;5053588;28;20050;-43
2023/12/29 08:29:25;;;;;;;5.03;1.80;;;9.50;99.90;;;;;;5058157;28;20120;-44
2023/12/29 08:31:51;;;;;;;9.70;2.30;;;9.50;99.90;;;;;;5067968;28;20016;-43
2023/12/29 08:34:16;;;;;;;7.50;2.28;;;9.50;99.90;;;;;;5069264;28;20373;-44
2023/12/29 08:36:42;;;;;;;12.07;2.72;;;9.60;99.90;;;;;;5068078;28;20030;-44
2023/12/29 08:39:09;;;;;;;11.82;2.67;;;9.70;99.90;;;;;;5069275;28;20021;-42
2023/12/29 08:41:35;;;;;;;8.43;2.13;;;9.80;99.90;;;;;;5068150;28;20081;-46
2023/12/29 08:44:00;;;;;;;11.70;2.60;;;9.90;99.90;;;;;;5068444;28;20016;-43
2023/12/29 08:46:26;;;;;;;12.50;2.30;;;10.00;99.90;;;;;;5069352;28;20107;-45
2023/12/29 08:48:52;;;;;;;9.13;2.65;;;10.10;99.90;;;;;;5068515;28;20060;-46
2023/12/29 08:51:17;;;;;;;6.82;2.60;;;10.20;99.90;;;;;;5069476;28;20020;-45
2023/12/29 08:53:43;;;;;;;10.93;2.53;;;10.20;99.90;;;;;;5068500;28;20028;-43
2023/12/29 08:56:08;;;;;;;7.75;2.20;;;10.30;99.90;;;;;;5069111;28;20039;-43
2023/12/29 08:58:34;;;;;;;7.90;2.13;;;10.40;99.90;;;;;;5068921;28;20050;-45
2023/12/29 09:01:00;;;;;;;14.57;2.75;;;10.40;99.90;;;;;;5068383;28;20398;-43
2023/12/29 09:03:25;;;;;;;16.20;2.97;;;10.50;99.90;;;;;;5069459;28;20028;-45
2023/12/29 09:05:51;;;;;;;14.05;2.53;;;10.70;99.90;;;;;;5068139;28;20032;-44
2023/12/29 09:08:16;;;;;;;12.45;3.10;;;10.80;99.90;;;;;;5068758;28;20424;-44
2023/12/29 09:10:42;;;;;;;9.60;2.28;;;10.80;99.90;;;;;;5069291;28;20075;-44
2023/12/29 09:13:09;;;;;;;10.52;2.55;;;10.80;99.90;;;;;;5067391;28;20284;-45
2023/12/29 09:15:35;;;;;;;10.25;1.98;;;10.90;99.90;;;;;;5068350;28;20489;-46
2023/12/29 09:18:01;;;;;;;8.48;2.35;;;11.00;99.90;;;;;;5068044;28;20107;-44
2023/12/29 09:20:27;;;;;;;15.55;3.67;;;11.10;99.90;;;;;;5069009;28;20031;-43
2023/12/29 09:22:53;;;;;;;10.88;2.58;;;11.20;99.90;;;;;;5066471;28;20032;-44
2023/12/29 09:25:19;;;;;;;8.43;1.92;;;11.20;99.90;;;;;;5068706;28;20021;-45
2023/12/29 09:27:45;;;;;;;8.95;2.72;;;11.30;99.90;;;;;;5066695;28;20036;-43
2023/12/29 09:30:11;;;;;;;8.10;2.00;;;11.30;99.90;;;;;;5067558;28;20020;-44
2023/12/29 09:32:37;;;;;;;8.27;2.50;;;11.30;99.90;;;;;;5069118;28;20081;-43
2023/12/29 09:35:03;;;;;;;10.85;2.40;;;11.30;99.90;;;;;;5068967;28;20028;-43
2023/12/29 09:37:28;;;;;;;11.07;2.50;;;11.30;99.90;;;;;;5068800;28;20550;-43
2023/12/29 09:39:54;;;;;;;10.13;2.22;;;11.30;99.90;;;;;;5067537;28;20024;-44
2023/12/29 09:42:24;;;;;;;10.98;2.83;;;11.30;99.90;;;;;;5069173;28;20024;-43
2023/12/29 09:44:51;;;;;;;6.43;2.13;;;11.30;99.90;;;;;;5061826;28;20025;-44
2023/12/29 09:47:25;;;;;;;6.18;1.85;;;11.40;99.90;;;;;;5067258;28;20016;-46
2023/12/29 09:49:54;;;;;;;7.72;2.22;;;11.50;99.90;;;;;;5066464;28;20681;-43
2023/12/29 09:52:24;;;;;;;13.43;3.03;;;11.50;99.90;;;;;;5068586;28;20433;-44
2023/12/29 09:54:51;;;;;;;5.10;2.13;;;11.60;99.90;;;;;;5067289;28;20025;-47
2023/12/29 09:57:18;;;;;;;10.18;2.25;;;11.60;99.90;;;;;;5066409;28;20039;-44
2023/12/29 09:59:44;;;;;;;12.43;2.60;;;11.60;99.90;;;;;;5067047;28;20483;-44
2023/12/29 10:02:15;;;;;;;8.90;2.00;;;11.50;99.90;;;;;;5067866;28;20017;-46
2023/12/29 10:04:41;;;;;;;6.88;2.13;;;11.50;99.90;;;;;;5068837;28;20086;-45
2023/12/29 10:07:10;;;;;;;11.02;1.77;;;11.50;99.90;;;;;;5051654;28;20393;-45
2023/12/29 10:09:39;;;;;;;11.02;2.05;;;11.40;99.90;;;;;;5061300;28;20240;-44
2023/12/29 10:12:08;;;;;;;9.98;2.05;;;11.30;99.90;;;;;;5048562;28;20028;-44
2023/12/29 10:14:56;;;;;;;10.25;2.28;;;11.30;99.90;;;;;;5048547;28;20462;-43
2023/12/29 10:18:06;;;;;;;7.25;1.55;;;11.20;99.90;;;;;;5048643;28;20021;-43
2023/12/29 10:20:57;;;;;;;6.88;1.70;;;11.20;99.90;;;;;;5048505;28;20029;-43
2023/12/29 10:23:31;;;;;;;5.68;2.20;;;11.10;99.90;;;;;;5047001;28;20028;-44
2023/12/29 10:25:57;;;;;;;16.92;2.17;;;11.00;99.90;;;;;;5047997;28;20032;-43
2023/12/29 10:28:23;;;;;;;4.60;1.65;;;10.90;99.90;;;;;;5048618;28;20017;-43
2023/12/29 10:30:49;;;;;;;8.15;1.70;;;10.90;99.90;;;;;;5049160;28;20116;-43
2023/12/29 10:33:21;;;;;;;5.53;1.80;;;10.70;99.90;;;;;;5048870;28;20059;-44
2023/12/29 10:36:05;;;;;;;8.15;1.70;;;10.60;99.90;;;;;;5048547;28;20111;-42
2023/12/29 10:38:31;;;;;;;6.15;1.67;;;10.50;99.90;;;;;;5048801;28;20493;-44
2023/12/29 10:41:13;;;;;;;5.18;1.50;;;10.40;99.90;;;;;;5049101;28;20057;-47
2023/12/29 10:43:38;;;;;;;6.05;1.67;;;10.10;99.90;;;;;;5047675;28;20021;-44
2023/12/29 10:46:08;;;;;;;5.70;1.67;;;10.00;99.90;;;;;;5049068;28;20066;-44
2023/12/29 10:48:34;;;;;;;5.32;1.35;;;9.80;99.90;;;;;;5046764;28;20422;-42
2023/12/29 10:51:03;;;;;;;4.18;1.10;;;9.60;99.90;;;;;;5048937;28;20394;-44
2023/12/29 10:53:30;;;;;;;8.35;1.67;;;9.40;99.90;;;;;;5048718;28;20023;-43
2023/12/29 10:55:58;;;;;;;7.10;1.52;;;9.40;99.90;;;;;;5049017;28;20096;-43
2023/12/29 10:58:26;;;;;;;6.70;1.75;;;9.20;99.90;;;;;;5048631;28;20386;-44
2023/12/29 11:00:53;;;;;;;4.25;1.55;;;9.20;99.90;;;;;;5049221;28;20099;-44
2023/12/29 11:03:19;;;;;;;3.50;1.30;;;9.10;99.90;;;;;;5049196;28;20032;-45
2023/12/29 11:05:45;;;;;;;4.55;1.50;;;9.10;99.90;;;;;;5049491;28;20029;-45
2023/12/29 11:08:20;;;;;;;4.88;1.48;;;9.00;99.90;;;;;;5049171;28;20021;-43
2023/12/29 11:10:49;;;;;;;4.38;1.30;;;9.00;99.90;;;;;;5049776;28;20390;-44
2023/12/29 11:13:15;;;;;;;4.15;1.55;;;9.00;99.90;;;;;;5041784;28;20021;-45
2023/12/29 11:15:44;;;;;;;5.40;1.85;;;9.00;99.90;;;;;;5049029;28;20036;-45
2023/12/29 11:18:17;;;;;;;5.20;1.60;;;9.00;99.90;;;;;;5048767;28;20021;-44
2023/12/29 11:20:44;;;;;;;7.38;2.00;;;9.00;99.90;;;;;;5049431;28;20021;-47
2023/12/29 11:23:13;;;;;;;6.82;2.00;;;8.90;99.90;;;;;;5048073;28;20394;-44
2023/12/29 11:25:38;;;;;;;6.47;1.63;;;8.90;99.90;;;;;;5049210;28;20155;-43
2023/12/29 11:28:11;;;;;;;10.05;1.60;;;8.90;99.90;;;;;;5049779;28;20111;-43
2023/12/29 11:30:38;;;;;;;3.47;1.50;;;8.90;99.90;;;;;;5049836;28;20017;-43
2023/12/29 11:33:12;;;;;;;6.35;1.52;;;8.80;99.90;;;;;;5049834;28;20020;-43
2023/12/29 11:35:48;;;;;;;3.97;1.95;;;8.90;99.90;;;;;;5049671;28;20017;-44
2023/12/29 11:38:41;;;;;;;8.93;1.58;;;8.90;99.90;;;;;;5051620;28;20470;-42
2023/12/29 11:41:35;;;;;;;4.13;1.60;;;8.80;99.90;;;;;;5054767;28;20089;-44
2023/12/29 11:44:01;;;;;;;5.32;1.80;;;8.90;99.90;;;;;;5050502;28;20037;-43
2023/12/29 11:46:37;;;;;;;10.07;2.00;;;8.90;99.90;;;;;;5053176;28;20477;-46
2023/12/29 11:49:04;;;;;;;5.15;1.75;;;8.90;99.90;;;;;;5052479;28;20386;-44
2023/12/29 11:51:37;;;;;;;6.65;1.95;;;8.90;99.90;;;;;;5053580;28;20116;-44
2023/12/29 11:54:04;;;;;;;6.13;1.60;;;9.00;99.90;;;;;;5054459;28;20035;-44
2023/12/29 11:56:43;;;;;;;4.55;1.90;;;9.00;99.90;;;;;;5053500;28;20390;-42
2023/12/29 11:59:46;;;;;;;6.57;2.63;;;9.00;99.90;;;;;;5052316;28;20032;-43
2023/12/29 12:02:27;;;;;;;9.23;1.85;;;9.10;99.90;;;;;;5052303;28;20053;-43
2023/12/29 12:04:52;;;;;;;5.90;1.70;;;9.10;99.90;;;;;;5054004;28;20025;-44
2023/12/29 12:07:31;;;;;;;5.32;1.48;;;9.20;99.90;;;;;;5052722;28;20180;-43
2023/12/29 12:10:29;;;;;;;9.15;2.00;;;9.20;99.90;;;;;;5054156;28;20021;-43
2023/12/29 12:12:56;;;;;;;10.75;2.90;;;9.30;99.90;;;;;;5054262;28;20052;-43
2023/12/29 12:15:28;;;;;;;5.32;1.45;;;9.30;99.90;;;;;;5053034;28;20084;-42
2023/12/29 12:17:54;;;;;;;4.82;1.45;;;9.40;99.90;;;;;;5053847;28;20354;-43
2023/12/29 12:20:20;;;;;;;3.83;1.30;;;9.40;99.90;;;;;;5052583;28;20037;-43
2023/12/29 12:22:56;;;;;;;6.18;1.40;;;9.50;99.90;;;;;;5053738;28;20439;-43
2023/12/29 12:25:24;;;;;;;4.22;1.30;;;9.70;99.90;;;;;;5051222;28;20328;-44
2023/12/29 12:27:51;;;;;;;7.63;1.63;;;9.70;99.90;;;;;;5053446;28;20057;-43
2023/12/29 12:30:19;;;;;;;4.25;1.52;;;9.80;99.90;;;;;;5052833;28;20108;-44
2023/12/29 12:32:45;;;;;;;4.90;1.30;;;9.70;99.90;;;;;;5053376;28;20096;-43
2023/12/29 12:35:17;;;;;;;4.32;1.15;;;9.70;99.90;;;;;;5053535;28;20260;-42
2023/12/29 12:37:43;;;;;;;4.03;1.38;;;9.80;99.90;;;;;;5050487;28;20470;-44
2023/12/29 12:40:09;;;;;;;1.92;1.00;;;9.80;99.90;;;;;;5054656;28;20057;-42
2023/12/29 12:42:42;;;;;;;3.55;0.90;;;9.90;99.90;;;;;;5053121;28;20340;-42
2023/12/29 12:45:20;;;;;;;4.10;0.90;;;9.90;99.90;;;;;;5051430;28;20025;-43
2023/12/29 12:47:52;;;;;;;2.17;1.00;;;10.00;99.90;;;;;;5048584;28;20075;-44
2023/12/29 12:50:17;;;;;;;3.10;1.00;;;9.90;99.90;;;;;;5053514;28;20009;-43
2023/12/29 12:52:43;;;;;;;2.15;0.90;;;9.90;99.90;;;;;;5053363;28;20013;-42
2023/12/29 12:55:10;;;;;;;4.75;1.17;;;10.00;99.90;;;;;;5054813;28;20096;-44
2023/12/29 12:57:36;;;;;;;1.98;0.77;;;10.00;99.90;;;;;;5053262;28;20025;-43